sensor_id;sensor_type;location;lat;lon;timestamp;temperature;humidity
7196;DHT22;3639;51.308;5.624;2023-09-30T00:00:14;11.90;99.90
7196;DHT22;3639;51.308;5.624;2023-09-30T00:02:40;12.00;99.90
7196;DHT22;3639;51.308;5.624;2023-09-30T00:05:07;12.00;99.90
7196;DHT22;3639;51.308;5.624;2023-09-30T00:07:33;12.00;99.90
7196;DHT22;3639;51.308;5.624;2023-09-30T00:09:59;12.00;99.90
7196;DHT22;3639;51.308;5.624;2023-09-30T00:12:25;12.00;99.90
7196;DHT22;3639;51.308;5.624;2023-09-30T00:14:51;12.10;99.90
7196;DHT22;3639;51.308;5.624;2023-09-30T00:17:16;12.10;99.90
7196;DHT22;3639;51.308;5.624;2023-09-30T00:19:42;12.10;99.90
7196;DHT22;3639;51.308;5.624;2023-09-30T00:22:07;12.00;99.90
7196;DHT22;3639;51.308;5.624;2023-09-30T00:24:33;12.00;99.90
7196;DHT22;3639;51.308;5.624;2023-09-30T00:26:59;12.00;99.90
7196;DHT22;3639;51.308;5.624;2023-09-30T00:29:25;12.10;99.90
7196;DHT22;3639;51.308;5.624;2023-09-30T00:31:52;12.10;99.90
7196;DHT22;3639;51.308;5.624;2023-09-30T00:34:17;12.10;99.90
7196;DHT22;3639;51.308;5.624;2023-09-30T00:36:43;12.10;99.90
7196;DHT22;3639;51.308;5.624;2023-09-30T00:39:08;12.10;99.90
7196;DHT22;3639;51.308;5.624;2023-09-30T00:41:35;12.00;99.90
7196;DHT22;3639;51.308;5.624;2023-09-30T00:44:02;12.00;99.90
7196;DHT22;3639;51.308;5.624;2023-09-30T00:46:36;12.00;99.90
7196;DHT22;3639;51.308;5.624;2023-09-30T00:49:03;12.00;99.90
7196;DHT22;3639;51.308;5.624;2023-09-30T00:51:29;12.00;99.90
7196;DHT22;3639;51.308;5.624;2023-09-30T00:53:58;12.00;99.90
7196;DHT22;3639;51.308;5.624;2023-09-30T00:56:27;12.00;99.90
7196;DHT22;3639;51.308;5.624;2023-09-30T00:58:52;12.00;99.90
7196;DHT22;3639;51.308;5.624;2023-09-30T01:01:20;12.00;99.90
7196;DHT22;3639;51.308;5.624;2023-09-30T01:03:46;11.90;99.90
7196;DHT22;3639;51.308;5.624;2023-09-30T01:06:12;11.90;99.90
7196;DHT22;3639;51.308;5.624;2023-09-30T01:08:38;11.90;99.90
7196;DHT22;3639;51.308;5.624;2023-09-30T01:11:04;11.90;99.90
7196;DHT22;3639;51.308;5.624;2023-09-30T01:13:37;11.90;99.90
7196;DHT22;3639;51.308;5.624;2023-09-30T01:16:07;12.00;99.90
7196;DHT22;3639;51.308;5.624;2023-09-30T01:18:36;11.90;99.90
7196;DHT22;3639;51.308;5.624;2023-09-30T01:21:06;11.90;99.90
7196;DHT22;3639;51.308;5.624;2023-09-30T01:23:32;11.90;99.90
7196;DHT22;3639;51.308;5.624;2023-09-30T01:26:10;11.90;99.90
7196;DHT22;3639;51.308;5.624;2023-09-30T01:28:36;11.80;99.90
7196;DHT22;3639;51.308;5.624;2023-09-30T01:31:05;11.80;99.90
7196;DHT22;3639;51.308;5.624;2023-09-30T01:33:31;11.70;99.90
7196;DHT22;3639;51.308;5.624;2023-09-30T01:35:58;11.70;99.90
7196;DHT22;3639;51.308;5.624;2023-09-30T01:38:25;11.70;99.90
7196;DHT22;3639;51.308;5.624;2023-09-30T01:40:51;11.70;99.90
7196;DHT22;3639;51.308;5.624;2023-09-30T01:43:16;11.70;99.90
7196;DHT22;3639;51.308;5.624;2023-09-30T01:45:43;11.60;99.90
7196;DHT22;3639;51.308;5.624;2023-09-30T01:48:10;11.60;99.90
7196;DHT22;3639;51.308;5.624;2023-09-30T01:50:39;11.60;99.90
7196;DHT22;3639;51.308;5.624;2023-09-30T01:53:05;11.50;99.90
7196;DHT22;3639;51.308;5.624;2023-09-30T01:55:32;11.50;99.90
7196;DHT22;3639;51.308;5.624;2023-09-30T01:57:58;11.50;99.90
7196;DHT22;3639;51.308;5.624;2023-09-30T02:00:24;11.50;99.90
7196;DHT22;3639;51.308;5.624;2023-09-30T02:02:50;11.40;99.90
7196;DHT22;3639;51.308;5.624;2023-09-30T02:05:15;11.40;99.90
7196;DHT22;3639;51.308;5.624;2023-09-30T02:07:41;11.50;99.90
7196;DHT22;3639;51.308;5.624;2023-09-30T02:10:07;11.50;99.90
7196;DHT22;3639;51.308;5.624;2023-09-30T02:12:33;11.50;99.90
7196;DHT22;3639;51.308;5.624;2023-09-30T02:15:03;11.50;99.90
7196;DHT22;3639;51.308;5.624;2023-09-30T02:17:29;11.40;99.90
7196;DHT22;3639;51.308;5.624;2023-09-30T02:19:56;11.40;99.90
7196;DHT22;3639;51.308;5.624;2023-09-30T02:22:23;11.40;99.90
7196;DHT22;3639;51.308;5.624;2023-09-30T02:24:50;11.40;99.90
7196;DHT22;3639;51.308;5.624;2023-09-30T02:27:16;11.50;99.90
7196;DHT22;3639;51.308;5.624;2023-09-30T02:29:42;11.50;99.90
7196;DHT22;3639;51.308;5.624;2023-09-30T02:32:08;11.50;99.90
7196;DHT22;3639;51.308;5.624;2023-09-30T02:34:34;11.50;99.90
7196;DHT22;3639;51.308;5.624;2023-09-30T02:37:01;11.50;99.90
7196;DHT22;3639;51.308;5.624;2023-09-30T02:39:27;11.50;99.90
7196;DHT22;3639;51.308;5.624;2023-09-30T02:41:53;11.50;99.90
7196;DHT22;3639;51.308;5.624;2023-09-30T02:44:19;11.40;99.90
7196;DHT22;3639;51.308;5.624;2023-09-30T02:46:44;11.40;99.90
7196;DHT22;3639;51.308;5.624;2023-09-30T02:49:10;11.40;99.90
7196;DHT22;3639;51.308;5.624;2023-09-30T02:51:35;11.30;99.90
7196;DHT22;3639;51.308;5.624;2023-09-30T02:54:02;11.30;99.90
7196;DHT22;3639;51.308;5.624;2023-09-30T02:56:28;11.30;99.90
7196;DHT22;3639;51.308;5.624;2023-09-30T02:58:56;11.30;99.90
7196;DHT22;3639;51.308;5.624;2023-09-30T03:01:21;11.30;99.90
7196;DHT22;3639;51.308;5.624;2023-09-30T03:03:47;11.20;99.90
7196;DHT22;3639;51.308;5.624;2023-09-30T03:06:13;11.20;99.90
7196;DHT22;3639;51.308;5.624;2023-09-30T03:08:39;11.20;99.90
7196;DHT22;3639;51.308;5.624;2023-09-30T03:11:06;11.20;99.90
7196;DHT22;3639;51.308;5.624;2023-09-30T03:13:33;11.20;99.90
7196;DHT22;3639;51.308;5.624;2023-09-30T03:16:00;11.20;99.90
7196;DHT22;3639;51.308;5.624;2023-09-30T03:18:29;11.10;99.90
7196;DHT22;3639;51.308;5.624;2023-09-30T03:21:01;11.20;99.90
7196;DHT22;3639;51.308;5.624;2023-09-30T03:23:30;11.10;99.90
7196;DHT22;3639;51.308;5.624;2023-09-30T03:25:57;11.10;99.90
7196;DHT22;3639;51.308;5.624;2023-09-30T03:28:23;11.10;99.90
7196;DHT22;3639;51.308;5.624;2023-09-30T03:30:49;11.10;99.90
7196;DHT22;3639;51.308;5.624;2023-09-30T03:33:15;11.10;99.90
7196;DHT22;3639;51.308;5.624;2023-09-30T03:35:40;11.10;99.90
7196;DHT22;3639;51.308;5.624;2023-09-30T03:38:07;11.00;99.90
7196;DHT22;3639;51.308;5.624;2023-09-30T03:40:33;11.00;99.90
7196;DHT22;3639;51.308;5.624;2023-09-30T03:43:01;11.00;99.90
7196;DHT22;3639;51.308;5.624;2023-09-30T03:45:26;11.00;99.90
7196;DHT22;3639;51.308;5.624;2023-09-30T03:47:52;11.00;99.90
7196;DHT22;3639;51.308;5.624;2023-09-30T03:50:18;11.00;99.90
7196;DHT22;3639;51.308;5.624;2023-09-30T03:52:44;11.00;99.90
7196;DHT22;3639;51.308;5.624;2023-09-30T03:55:11;11.00;99.90
7196;DHT22;3639;51.308;5.624;2023-09-30T03:57:37;11.00;99.90
7196;DHT22;3639;51.308;5.624;2023-09-30T04:00:03;10.90;99.90
7196;DHT22;3639;51.308;5.624;2023-09-30T04:02:33;10.90;99.90
7196;DHT22;3639;51.308;5.624;2023-09-30T04:04:59;10.90;99.90
7196;DHT22;3639;51.308;5.624;2023-09-30T04:07:31;10.90;99.90
7196;DHT22;3639;51.308;5.624;2023-09-30T04:09:56;10.90;99.90
7196;DHT22;3639;51.308;5.624;2023-09-30T04:12:22;10.80;99.90
7196;DHT22;3639;51.308;5.624;2023-09-30T04:14:51;10.80;99.90
7196;DHT22;3639;51.308;5.624;2023-09-30T04:17:17;10.80;99.90
7196;DHT22;3639;51.308;5.624;2023-09-30T04:19:43;10.80;99.90
7196;DHT22;3639;51.308;5.624;2023-09-30T04:22:08;10.80;99.90
7196;DHT22;3639;51.308;5.624;2023-09-30T04:24:34;10.90;99.90
7196;DHT22;3639;51.308;5.624;2023-09-30T04:27:00;10.90;99.90
7196;DHT22;3639;51.308;5.624;2023-09-30T04:29:29;10.90;99.90
7196;DHT22;3639;51.308;5.624;2023-09-30T04:31:55;10.90;99.90
7196;DHT22;3639;51.308;5.624;2023-09-30T04:34:21;10.90;99.90
7196;DHT22;3639;51.308;5.624;2023-09-30T04:36:47;10.80;99.90
7196;DHT22;3639;51.308;5.624;2023-09-30T04:39:13;10.90;99.90
7196;DHT22;3639;51.308;5.624;2023-09-30T04:41:41;10.90;99.90
7196;DHT22;3639;51.308;5.624;2023-09-30T04:44:07;10.90;99.90
7196;DHT22;3639;51.308;5.624;2023-09-30T04:46:35;10.90;99.90
7196;DHT22;3639;51.308;5.624;2023-09-30T04:49:02;10.90;99.90
7196;DHT22;3639;51.308;5.624;2023-09-30T04:51:30;10.90;99.90
7196;DHT22;3639;51.308;5.624;2023-09-30T04:54:01;10.90;99.90
7196;DHT22;3639;51.308;5.624;2023-09-30T04:56:27;10.90;99.90
7196;DHT22;3639;51.308;5.624;2023-09-30T04:58:53;10.90;99.90
7196;DHT22;3639;51.308;5.624;2023-09-30T05:01:19;10.90;99.90
7196;DHT22;3639;51.308;5.624;2023-09-30T05:03:45;11.00;99.90
7196;DHT22;3639;51.308;5.624;2023-09-30T05:06:15;11.00;99.90
7196;DHT22;3639;51.308;5.624;2023-09-30T05:08:41;11.00;99.90
7196;DHT22;3639;51.308;5.624;2023-09-30T05:11:07;11.00;99.90
7196;DHT22;3639;51.308;5.624;2023-09-30T05:13:36;11.00;99.90
7196;DHT22;3639;51.308;5.624;2023-09-30T05:16:02;11.00;99.90
7196;DHT22;3639;51.308;5.624;2023-09-30T05:18:32;11.00;99.90
7196;DHT22;3639;51.308;5.624;2023-09-30T05:20:57;11.00;99.90
7196;DHT22;3639;51.308;5.624;2023-09-30T05:23:23;11.00;99.90
7196;DHT22;3639;51.308;5.624;2023-09-30T05:25:49;11.00;99.90
7196;DHT22;3639;51.308;5.624;2023-09-30T05:28:15;11.00;99.90
7196;DHT22;3639;51.308;5.624;2023-09-30T05:30:40;11.00;99.90
7196;DHT22;3639;51.308;5.624;2023-09-30T05:33:06;11.00;99.90
7196;DHT22;3639;51.308;5.624;2023-09-30T05:35:32;11.00;99.90
7196;DHT22;3639;51.308;5.624;2023-09-30T05:37:58;11.00;99.90
7196;DHT22;3639;51.308;5.624;2023-09-30T05:40:24;10.90;99.90
7196;DHT22;3639;51.308;5.624;2023-09-30T05:42:56;10.90;99.90
7196;DHT22;3639;51.308;5.624;2023-09-30T05:45:30;10.90;99.90
7196;DHT22;3639;51.308;5.624;2023-09-30T05:47:56;10.90;99.90
7196;DHT22;3639;51.308;5.624;2023-09-30T05:50:25;10.90;99.90
7196;DHT22;3639;51.308;5.624;2023-09-30T05:52:54;10.90;99.90
7196;DHT22;3639;51.308;5.624;2023-09-30T05:55:25;10.90;99.90
7196;DHT22;3639;51.308;5.624;2023-09-30T05:57:54;10.90;99.90
7196;DHT22;3639;51.308;5.624;2023-09-30T06:00:20;10.90;99.90
7196;DHT22;3639;51.308;5.624;2023-09-30T06:02:54;10.90;99.90
7196;DHT22;3639;51.308;5.624;2023-09-30T06:05:22;10.90;99.90
7196;DHT22;3639;51.308;5.624;2023-09-30T06:07:49;10.90;99.90
7196;DHT22;3639;51.308;5.624;2023-09-30T06:10:15;10.90;99.90
7196;DHT22;3639;51.308;5.624;2023-09-30T06:12:41;11.00;99.90
7196;DHT22;3639;51.308;5.624;2023-09-30T06:15:08;11.00;99.90
7196;DHT22;3639;51.308;5.624;2023-09-30T06:17:35;11.00;99.90
7196;DHT22;3639;51.308;5.624;2023-09-30T06:20:04;11.00;99.90
7196;DHT22;3639;51.308;5.624;2023-09-30T06:22:35;11.10;99.90
7196;DHT22;3639;51.308;5.624;2023-09-30T06:25:01;11.20;99.90
7196;DHT22;3639;51.308;5.624;2023-09-30T06:27:29;11.20;99.90
7196;DHT22;3639;51.308;5.624;2023-09-30T06:29:57;11.30;99.90
7196;DHT22;3639;51.308;5.624;2023-09-30T06:32:23;11.30;99.90
7196;DHT22;3639;51.308;5.624;2023-09-30T06:34:48;11.30;99.90
7196;DHT22;3639;51.308;5.624;2023-09-30T06:37:14;11.40;99.90
7196;DHT22;3639;51.308;5.624;2023-09-30T06:39:40;11.40;99.90
7196;DHT22;3639;51.308;5.624;2023-09-30T06:42:06;11.50;99.90
7196;DHT22;3639;51.308;5.624;2023-09-30T06:44:32;11.50;99.90
7196;DHT22;3639;51.308;5.624;2023-09-30T06:46:58;11.50;99.90
7196;DHT22;3639;51.308;5.624;2023-09-30T06:49:23;11.50;99.90
7196;DHT22;3639;51.308;5.624;2023-09-30T06:51:50;11.60;99.90
7196;DHT22;3639;51.308;5.624;2023-09-30T06:54:15;11.60;99.90
7196;DHT22;3639;51.308;5.624;2023-09-30T06:56:41;11.60;99.90
7196;DHT22;3639;51.308;5.624;2023-09-30T06:59:06;11.70;99.90
7196;DHT22;3639;51.308;5.624;2023-09-30T07:01:32;11.80;99.90
7196;DHT22;3639;51.308;5.624;2023-09-30T07:03:58;11.90;99.90
7196;DHT22;3639;51.308;5.624;2023-09-30T07:06:24;12.00;99.90
7196;DHT22;3639;51.308;5.624;2023-09-30T07:08:50;12.00;99.90
7196;DHT22;3639;51.308;5.624;2023-09-30T07:11:16;12.10;99.90
7196;DHT22;3639;51.308;5.624;2023-09-30T07:13:41;12.20;99.90
7196;DHT22;3639;51.308;5.624;2023-09-30T07:16:07;12.20;99.90
7196;DHT22;3639;51.308;5.624;2023-09-30T07:18:32;12.40;99.90
7196;DHT22;3639;51.308;5.624;2023-09-30T07:20:58;12.40;99.90
7196;DHT22;3639;51.308;5.624;2023-09-30T07:23:24;12.50;99.90
7196;DHT22;3639;51.308;5.624;2023-09-30T07:25:49;12.60;99.90
7196;DHT22;3639;51.308;5.624;2023-09-30T07:28:17;12.70;99.90
7196;DHT22;3639;51.308;5.624;2023-09-30T07:30:44;12.80;99.90
7196;DHT22;3639;51.308;5.624;2023-09-30T07:33:11;12.80;99.90
7196;DHT22;3639;51.308;5.624;2023-09-30T07:35:37;12.90;99.90
7196;DHT22;3639;51.308;5.624;2023-09-30T07:38:04;13.00;99.90
7196;DHT22;3639;51.308;5.624;2023-09-30T07:40:31;13.10;99.90
7196;DHT22;3639;51.308;5.624;2023-09-30T07:42:56;13.20;99.90
7196;DHT22;3639;51.308;5.624;2023-09-30T07:45:22;13.30;99.90
7196;DHT22;3639;51.308;5.624;2023-09-30T07:47:50;13.40;99.90
7196;DHT22;3639;51.308;5.624;2023-09-30T07:50:16;13.50;99.90
7196;DHT22;3639;51.308;5.624;2023-09-30T07:52:43;13.70;99.90
7196;DHT22;3639;51.308;5.624;2023-09-30T07:55:09;13.80;99.90
7196;DHT22;3639;51.308;5.624;2023-09-30T07:57:35;13.80;99.90
7196;DHT22;3639;51.308;5.624;2023-09-30T08:00:01;13.90;99.90
7196;DHT22;3639;51.308;5.624;2023-09-30T08:02:29;14.00;99.90
7196;DHT22;3639;51.308;5.624;2023-09-30T08:04:59;14.10;99.90
7196;DHT22;3639;51.308;5.624;2023-09-30T08:07:26;14.30;99.90
7196;DHT22;3639;51.308;5.624;2023-09-30T08:09:51;14.30;99.90
7196;DHT22;3639;51.308;5.624;2023-09-30T08:12:19;14.50;99.90
7196;DHT22;3639;51.308;5.624;2023-09-30T08:14:44;14.50;99.90
7196;DHT22;3639;51.308;5.624;2023-09-30T08:17:10;14.70;99.90
7196;DHT22;3639;51.308;5.624;2023-09-30T08:19:37;14.80;99.90
7196;DHT22;3639;51.308;5.624;2023-09-30T08:22:03;14.90;99.90
7196;DHT22;3639;51.308;5.624;2023-09-30T08:24:36;15.00;99.90
7196;DHT22;3639;51.308;5.624;2023-09-30T08:27:02;15.20;99.90
7196;DHT22;3639;51.308;5.624;2023-09-30T08:29:27;15.30;99.90
7196;DHT22;3639;51.308;5.624;2023-09-30T08:31:55;15.40;99.90
7196;DHT22;3639;51.308;5.624;2023-09-30T08:34:21;15.50;99.90
7196;DHT22;3639;51.308;5.624;2023-09-30T08:36:53;15.60;99.90
7196;DHT22;3639;51.308;5.624;2023-09-30T08:39:19;15.70;99.90
7196;DHT22;3639;51.308;5.624;2023-09-30T08:41:45;15.80;99.90
7196;DHT22;3639;51.308;5.624;2023-09-30T08:44:11;15.90;99.90
7196;DHT22;3639;51.308;5.624;2023-09-30T08:46:39;15.90;99.90
7196;DHT22;3639;51.308;5.624;2023-09-30T08:49:06;15.90;99.90
7196;DHT22;3639;51.308;5.624;2023-09-30T08:51:32;16.10;99.90
7196;DHT22;3639;51.308;5.624;2023-09-30T08:54:00;16.10;99.90
7196;DHT22;3639;51.308;5.624;2023-09-30T08:56:28;16.30;99.90
7196;DHT22;3639;51.308;5.624;2023-09-30T08:59:14;16.50;99.90
7196;DHT22;3639;51.308;5.624;2023-09-30T09:01:40;16.50;99.90
7196;DHT22;3639;51.308;5.624;2023-09-30T09:04:07;16.60;99.90
7196;DHT22;3639;51.308;5.624;2023-09-30T09:06:35;16.60;99.90
7196;DHT22;3639;51.308;5.624;2023-09-30T09:09:16;16.70;99.90
7196;DHT22;3639;51.308;5.624;2023-09-30T09:11:47;16.80;99.90
7196;DHT22;3639;51.308;5.624;2023-09-30T09:14:13;16.90;99.90
7196;DHT22;3639;51.308;5.624;2023-09-30T09:17:00;17.00;99.90
7196;DHT22;3639;51.308;5.624;2023-09-30T09:19:26;17.10;99.90
7196;DHT22;3639;51.308;5.624;2023-09-30T09:22:01;17.20;99.90
7196;DHT22;3639;51.308;5.624;2023-09-30T09:24:37;17.20;99.90
7196;DHT22;3639;51.308;5.624;2023-09-30T09:29:34;17.40;99.90
7196;DHT22;3639;51.308;5.624;2023-09-30T09:32:12;17.40;99.90
7196;DHT22;3639;51.308;5.624;2023-09-30T09:34:44;17.50;99.90
7196;DHT22;3639;51.308;5.624;2023-09-30T09:37:19;17.50;99.90
7196;DHT22;3639;51.308;5.624;2023-09-30T09:39:56;17.50;99.90
7196;DHT22;3639;51.308;5.624;2023-09-30T09:42:30;17.60;99.90
7196;DHT22;3639;51.308;5.624;2023-09-30T09:44:59;17.60;99.90
7196;DHT22;3639;51.308;5.624;2023-09-30T09:47:25;17.60;99.90
7196;DHT22;3639;51.308;5.624;2023-09-30T09:49:52;17.60;99.90
7196;DHT22;3639;51.308;5.624;2023-09-30T09:52:20;17.70;99.90
7196;DHT22;3639;51.308;5.624;2023-09-30T09:54:48;17.90;99.90
7196;DHT22;3639;51.308;5.624;2023-09-30T09:57:16;18.00;99.90
7196;DHT22;3639;51.308;5.624;2023-09-30T09:59:43;18.10;99.90
7196;DHT22;3639;51.308;5.624;2023-09-30T10:02:11;18.10;99.90
7196;DHT22;3639;51.308;5.624;2023-09-30T10:04:41;18.10;99.90
7196;DHT22;3639;51.308;5.624;2023-09-30T10:07:14;18.20;99.90
7196;DHT22;3639;51.308;5.624;2023-09-30T10:09:45;18.20;99.90
7196;DHT22;3639;51.308;5.624;2023-09-30T10:12:12;18.20;99.90
7196;DHT22;3639;51.308;5.624;2023-09-30T10:14:38;18.50;99.90
7196;DHT22;3639;51.308;5.624;2023-09-30T10:17:03;18.60;99.90
7196;DHT22;3639;51.308;5.624;2023-09-30T10:19:30;18.70;99.90
7196;DHT22;3639;51.308;5.624;2023-09-30T10:24:42;19.00;99.90
7196;DHT22;3639;51.308;5.624;2023-09-30T10:35:41;19.20;99.90
7196;DHT22;3639;51.308;5.624;2023-09-30T10:40:50;19.40;99.90
7196;DHT22;3639;51.308;5.624;2023-09-30T10:43:32;19.30;99.90
7196;DHT22;3639;51.308;5.624;2023-09-30T10:45:58;19.40;99.90
7196;DHT22;3639;51.308;5.624;2023-09-30T10:48:33;19.50;99.90
7196;DHT22;3639;51.308;5.624;2023-09-30T10:51:17;19.50;99.90
7196;DHT22;3639;51.308;5.624;2023-09-30T10:53:51;19.60;99.90
7196;DHT22;3639;51.308;5.624;2023-09-30T10:56:20;19.70;99.90
7196;DHT22;3639;51.308;5.624;2023-09-30T10:58:51;19.80;99.90
7196;DHT22;3639;51.308;5.624;2023-09-30T11:01:19;19.80;99.90
7196;DHT22;3639;51.308;5.624;2023-09-30T11:03:47;19.80;99.90
7196;DHT22;3639;51.308;5.624;2023-09-30T11:06:17;19.80;99.90
7196;DHT22;3639;51.308;5.624;2023-09-30T11:08:55;19.80;99.90
7196;DHT22;3639;51.308;5.624;2023-09-30T11:11:43;19.80;99.90
7196;DHT22;3639;51.308;5.624;2023-09-30T11:14:29;19.90;99.90
7196;DHT22;3639;51.308;5.624;2023-09-30T11:16:57;19.90;99.90
7196;DHT22;3639;51.308;5.624;2023-09-30T11:19:23;19.90;99.90
7196;DHT22;3639;51.308;5.624;2023-09-30T11:21:51;19.90;99.90
7196;DHT22;3639;51.308;5.624;2023-09-30T11:24:18;20.10;99.90
7196;DHT22;3639;51.308;5.624;2023-09-30T11:26:44;20.20;99.90
7196;DHT22;3639;51.308;5.624;2023-09-30T11:31:43;20.40;99.90
7196;DHT22;3639;51.308;5.624;2023-09-30T11:34:10;20.20;99.90
7196;DHT22;3639;51.308;5.624;2023-09-30T11:37:03;20.00;99.90
7196;DHT22;3639;51.308;5.624;2023-09-30T11:39:29;19.90;99.90
7196;DHT22;3639;51.308;5.624;2023-09-30T11:41:56;19.90;99.90
7196;DHT22;3639;51.308;5.624;2023-09-30T11:44:26;19.80;99.90
7196;DHT22;3639;51.308;5.624;2023-09-30T11:46:57;19.80;99.90
7196;DHT22;3639;51.308;5.624;2023-09-30T11:49:42;19.80;99.90
7196;DHT22;3639;51.308;5.624;2023-09-30T11:52:13;19.70;99.90
7196;DHT22;3639;51.308;5.624;2023-09-30T11:54:41;19.80;99.90
7196;DHT22;3639;51.308;5.624;2023-09-30T11:57:09;19.80;99.90
7196;DHT22;3639;51.308;5.624;2023-09-30T11:59:35;19.80;99.90
7196;DHT22;3639;51.308;5.624;2023-09-30T12:02:09;19.80;99.90
7196;DHT22;3639;51.308;5.624;2023-09-30T12:04:35;19.90;99.90
7196;DHT22;3639;51.308;5.624;2023-09-30T12:07:01;19.90;99.90
7196;DHT22;3639;51.308;5.624;2023-09-30T12:09:27;19.90;99.90
7196;DHT22;3639;51.308;5.624;2023-09-30T12:11:54;19.90;99.90
7196;DHT22;3639;51.308;5.624;2023-09-30T12:14:23;19.90;99.90
7196;DHT22;3639;51.308;5.624;2023-09-30T12:16:49;19.80;99.90
7196;DHT22;3639;51.308;5.624;2023-09-30T12:19:19;19.60;99.90
7196;DHT22;3639;51.308;5.624;2023-09-30T12:21:46;19.60;99.90
7196;DHT22;3639;51.308;5.624;2023-09-30T12:24:17;19.60;99.90
7196;DHT22;3639;51.308;5.624;2023-09-30T12:26:49;19.60;99.90
7196;DHT22;3639;51.308;5.624;2023-09-30T12:29:15;19.70;99.90
7196;DHT22;3639;51.308;5.624;2023-09-30T12:31:45;19.70;99.90
7196;DHT22;3639;51.308;5.624;2023-09-30T12:34:11;19.80;99.90
7196;DHT22;3639;51.308;5.624;2023-09-30T12:36:37;19.80;99.90
7196;DHT22;3639;51.308;5.624;2023-09-30T12:39:03;19.90;99.90
7196;DHT22;3639;51.308;5.624;2023-09-30T12:41:39;19.90;99.90
7196;DHT22;3639;51.308;5.624;2023-09-30T12:44:06;20.00;99.90
7196;DHT22;3639;51.308;5.624;2023-09-30T12:46:32;20.10;99.90
7196;DHT22;3639;51.308;5.624;2023-09-30T12:49:03;20.30;99.90
7196;DHT22;3639;51.308;5.624;2023-09-30T12:51:29;20.40;99.90
7196;DHT22;3639;51.308;5.624;2023-09-30T12:53:55;20.40;99.90
7196;DHT22;3639;51.308;5.624;2023-09-30T12:56:22;20.50;99.90
7196;DHT22;3639;51.308;5.624;2023-09-30T12:58:47;20.40;99.90
7196;DHT22;3639;51.308;5.624;2023-09-30T13:01:13;20.30;99.90
7196;DHT22;3639;51.308;5.624;2023-09-30T13:03:39;20.30;99.90
7196;DHT22;3639;51.308;5.624;2023-09-30T13:06:05;20.20;99.90
7196;DHT22;3639;51.308;5.624;2023-09-30T13:08:30;20.20;99.90
7196;DHT22;3639;51.308;5.624;2023-09-30T13:11:00;20.30;99.90
7196;DHT22;3639;51.308;5.624;2023-09-30T13:13:28;20.20;99.90
7196;DHT22;3639;51.308;5.624;2023-09-30T13:15:54;20.20;99.90
7196;DHT22;3639;51.308;5.624;2023-09-30T13:18:19;20.20;99.90
7196;DHT22;3639;51.308;5.624;2023-09-30T13:20:45;20.20;99.90
7196;DHT22;3639;51.308;5.624;2023-09-30T13:23:10;20.10;99.90
7196;DHT22;3639;51.308;5.624;2023-09-30T13:25:36;20.10;99.90
7196;DHT22;3639;51.308;5.624;2023-09-30T13:28:02;20.20;99.90
7196;DHT22;3639;51.308;5.624;2023-09-30T13:30:27;20.20;99.90
7196;DHT22;3639;51.308;5.624;2023-09-30T13:32:53;20.10;99.90
7196;DHT22;3639;51.308;5.624;2023-09-30T13:35:19;20.10;99.90
7196;DHT22;3639;51.308;5.624;2023-09-30T13:37:44;20.20;99.90
7196;DHT22;3639;51.308;5.624;2023-09-30T13:40:10;20.20;99.90
7196;DHT22;3639;51.308;5.624;2023-09-30T13:42:38;20.10;99.90
7196;DHT22;3639;51.308;5.624;2023-09-30T13:45:06;20.00;99.90
7196;DHT22;3639;51.308;5.624;2023-09-30T13:47:33;20.10;99.90
7196;DHT22;3639;51.308;5.624;2023-09-30T13:49:58;20.20;99.90
7196;DHT22;3639;51.308;5.624;2023-09-30T13:52:24;20.20;99.90
7196;DHT22;3639;51.308;5.624;2023-09-30T13:54:50;20.20;99.90
7196;DHT22;3639;51.308;5.624;2023-09-30T13:57:16;20.30;99.90
7196;DHT22;3639;51.308;5.624;2023-09-30T13:59:42;20.20;99.90
7196;DHT22;3639;51.308;5.624;2023-09-30T14:02:07;20.20;99.90
7196;DHT22;3639;51.308;5.624;2023-09-30T14:04:33;20.10;99.90
7196;DHT22;3639;51.308;5.624;2023-09-30T14:07:02;20.10;99.90
7196;DHT22;3639;51.308;5.624;2023-09-30T14:09:28;20.00;99.90
7196;DHT22;3639;51.308;5.624;2023-09-30T14:11:54;20.00;99.90
7196;DHT22;3639;51.308;5.624;2023-09-30T14:14:20;19.90;99.90
7196;DHT22;3639;51.308;5.624;2023-09-30T14:16:46;19.80;99.90
7196;DHT22;3639;51.308;5.624;2023-09-30T14:19:12;19.80;99.90
7196;DHT22;3639;51.308;5.624;2023-09-30T14:21:39;19.70;99.90
7196;DHT22;3639;51.308;5.624;2023-09-30T14:24:05;19.60;99.90
7196;DHT22;3639;51.308;5.624;2023-09-30T14:26:32;19.60;99.90
7196;DHT22;3639;51.308;5.624;2023-09-30T14:28:57;19.60;99.90
7196;DHT22;3639;51.308;5.624;2023-09-30T14:31:23;19.50;99.90
7196;DHT22;3639;51.308;5.624;2023-09-30T14:33:48;19.50;99.90
7196;DHT22;3639;51.308;5.624;2023-09-30T14:36:16;19.50;99.90
7196;DHT22;3639;51.308;5.624;2023-09-30T14:38:42;19.40;99.90
7196;DHT22;3639;51.308;5.624;2023-09-30T14:41:08;19.40;99.90
7196;DHT22;3639;51.308;5.624;2023-09-30T14:43:35;19.40;99.90
7196;DHT22;3639;51.308;5.624;2023-09-30T14:46:06;19.40;99.90
7196;DHT22;3639;51.308;5.624;2023-09-30T14:48:33;19.40;99.90
7196;DHT22;3639;51.308;5.624;2023-09-30T14:50:59;19.30;99.90
7196;DHT22;3639;51.308;5.624;2023-09-30T14:53:25;19.30;99.90
7196;DHT22;3639;51.308;5.624;2023-09-30T14:55:51;19.30;99.90
7196;DHT22;3639;51.308;5.624;2023-09-30T14:58:16;19.30;99.90
7196;DHT22;3639;51.308;5.624;2023-09-30T15:00:44;19.20;99.90
7196;DHT22;3639;51.308;5.624;2023-09-30T15:03:09;19.30;99.90
7196;DHT22;3639;51.308;5.624;2023-09-30T15:05:36;19.20;99.90
7196;DHT22;3639;51.308;5.624;2023-09-30T15:08:01;19.20;99.90
7196;DHT22;3639;51.308;5.624;2023-09-30T15:10:28;19.20;99.90
7196;DHT22;3639;51.308;5.624;2023-09-30T15:12:54;19.10;99.90
7196;DHT22;3639;51.308;5.624;2023-09-30T15:15:20;19.10;99.90
7196;DHT22;3639;51.308;5.624;2023-09-30T15:17:45;19.10;99.90
7196;DHT22;3639;51.308;5.624;2023-09-30T15:20:11;19.10;99.90
7196;DHT22;3639;51.308;5.624;2023-09-30T15:22:37;19.10;99.90
7196;DHT22;3639;51.308;5.624;2023-09-30T15:25:03;19.10;99.90
7196;DHT22;3639;51.308;5.624;2023-09-30T15:27:30;19.10;99.90
7196;DHT22;3639;51.308;5.624;2023-09-30T15:29:58;19.00;99.90
7196;DHT22;3639;51.308;5.624;2023-09-30T15:32:24;19.00;99.90
7196;DHT22;3639;51.308;5.624;2023-09-30T15:34:50;19.00;99.90
7196;DHT22;3639;51.308;5.624;2023-09-30T15:37:15;19.00;99.90
7196;DHT22;3639;51.308;5.624;2023-09-30T15:39:41;18.90;99.90
7196;DHT22;3639;51.308;5.624;2023-09-30T15:42:08;18.90;99.90
7196;DHT22;3639;51.308;5.624;2023-09-30T15:44:37;18.80;99.90
7196;DHT22;3639;51.308;5.624;2023-09-30T15:47:05;18.70;99.90
7196;DHT22;3639;51.308;5.624;2023-09-30T15:49:31;18.60;99.90
7196;DHT22;3639;51.308;5.624;2023-09-30T15:51:57;18.70;99.90
7196;DHT22;3639;51.308;5.624;2023-09-30T15:54:23;18.60;99.90
7196;DHT22;3639;51.308;5.624;2023-09-30T15:56:48;18.60;99.90
7196;DHT22;3639;51.308;5.624;2023-09-30T15:59:15;18.50;99.90
7196;DHT22;3639;51.308;5.624;2023-09-30T16:01:41;18.50;99.90
7196;DHT22;3639;51.308;5.624;2023-09-30T16:04:06;18.60;99.90
7196;DHT22;3639;51.308;5.624;2023-09-30T16:06:32;18.50;99.90
7196;DHT22;3639;51.308;5.624;2023-09-30T16:08:58;18.50;99.90
7196;DHT22;3639;51.308;5.624;2023-09-30T16:11:25;18.40;99.90
7196;DHT22;3639;51.308;5.624;2023-09-30T16:13:54;18.40;99.90
7196;DHT22;3639;51.308;5.624;2023-09-30T16:16:22;18.30;99.90
7196;DHT22;3639;51.308;5.624;2023-09-30T16:18:47;18.10;99.90
7196;DHT22;3639;51.308;5.624;2023-09-30T16:21:13;18.10;99.90